createdAt,value
2023-02-12T00:01:30.751Z,5.80
2023-02-12T00:02:32.735Z,5.70
2023-02-12T00:03:36.502Z,5.70
2023-02-12T00:04:38.880Z,5.70
2023-02-12T00:05:42.624Z,5.60
2023-02-12T00:06:44.584Z,5.60
2023-02-12T00:07:47.570Z,5.60
2023-02-12T00:08:50.610Z,5.60
2023-02-12T00:09:53.598Z,5.60
2023-02-12T00:10:56.975Z,5.60
2023-02-12T00:12:00.155Z,5.50
2023-02-12T00:13:02.236Z,5.60
2023-02-12T00:14:05.835Z,5.60
2023-02-12T00:15:08.789Z,5.50
2023-02-12T00:16:14.229Z,5.50
2023-02-12T00:17:16.238Z,5.50
2023-02-12T00:18:19.273Z,5.50
2023-02-12T00:19:21.260Z,5.50
2023-02-12T00:20:24.142Z,5.50
2023-02-12T00:21:26.173Z,5.50
2023-02-12T00:22:29.524Z,5.50
2023-02-12T00:23:32.074Z,5.40
2023-02-12T00:24:35.088Z,5.40
2023-02-12T00:25:41.858Z,5.50
2023-02-12T00:26:48.176Z,5.50
2023-02-12T00:27:50.122Z,5.40
2023-02-12T00:28:53.557Z,5.50
2023-02-12T00:29:56.493Z,5.50
2023-02-12T00:30:58.516Z,5.50
2023-02-12T00:32:01.964Z,5.40
2023-02-12T00:33:04.072Z,5.40
2023-02-12T00:34:07.104Z,5.40
2023-02-12T00:35:09.144Z,5.40
2023-02-12T00:36:15.693Z,5.30
2023-02-12T00:37:17.832Z,5.30
2023-02-12T00:38:20.715Z,5.30
2023-02-12T00:39:23.636Z,5.40
2023-02-12T00:40:25.613Z,5.40
2023-02-12T00:41:28.663Z,5.30
2023-02-12T00:42:32.544Z,5.40
2023-02-12T00:43:35.583Z,5.30
2023-02-12T00:44:37.697Z,5.30
2023-02-12T00:45:40.611Z,5.30
2023-02-12T00:46:42.715Z,5.30
2023-02-12T00:47:45.690Z,5.40
2023-02-12T00:48:47.702Z,5.40
2023-02-12T00:49:50.668Z,5.50
2023-02-12T00:50:52.835Z,5.60
2023-02-12T00:51:55.810Z,5.70
2023-02-12T00:52:57.963Z,5.70
2023-02-12T00:54:00.850Z,5.60
2023-02-12T00:55:02.803Z,5.60
2023-02-12T00:56:06.405Z,5.50
2023-02-12T00:57:08.363Z,5.90
2023-02-12T00:58:12.884Z,5.60
2023-02-12T00:59:14.799Z,5.60
2023-02-12T01:00:18.184Z,5.50
2023-02-12T01:01:20.245Z,5.50
2023-02-12T01:02:23.236Z,5.50
2023-02-12T01:03:26.032Z,5.50
2023-02-12T01:04:29.031Z,5.50
2023-02-12T01:05:31.385Z,5.50
2023-02-12T01:06:34.291Z,5.40
2023-02-12T01:07:38.459Z,5.40
2023-02-12T01:08:41.432Z,5.30
2023-02-12T01:09:43.452Z,5.30
2023-02-12T01:10:46.919Z,5.40
2023-02-12T01:11:49.871Z,5.30
2023-02-12T01:12:51.988Z,5.30
2023-02-12T01:13:56.362Z,5.30
2023-02-12T01:14:58.271Z,5.30
2023-02-12T01:16:08.664Z,5.20
2023-02-12T01:17:10.688Z,5.20
2023-02-12T01:18:16.390Z,5.20
2023-02-12T01:19:18.382Z,5.20
2023-02-12T01:20:24.193Z,5.20
2023-02-12T01:21:29.076Z,5.20
2023-02-12T01:22:32.335Z,5.20
2023-02-12T01:23:34.339Z,5.30
2023-02-12T01:24:37.230Z,5.30
2023-02-12T01:25:39.409Z,5.20
2023-02-12T01:26:42.427Z,5.30
2023-02-12T01:27:44.476Z,5.20
2023-02-12T01:28:51.685Z,5.30
2023-02-12T01:29:55.108Z,5.30
2023-02-12T01:30:58.083Z,5.20
2023-02-12T01:32:00.341Z,5.20
2023-02-12T01:33:03.456Z,5.20
2023-02-12T01:34:06.855Z,5.20
2023-02-12T01:35:10.903Z,5.20
2023-02-12T01:36:12.848Z,5.30
2023-02-12T01:37:15.819Z,5.30
2023-02-12T01:38:17.784Z,5.40
2023-02-12T01:39:20.718Z,5.40
2023-02-12T01:40:22.913Z,5.40
2023-02-12T01:41:28.285Z,5.40
2023-02-12T01:42:30.485Z,5.30
2023-02-12T01:43:34.678Z,5.30
2023-02-12T01:44:37.895Z,5.30
2023-02-12T01:46:01.340Z,5.30
2023-02-12T01:47:05.527Z,5.20
2023-02-12T01:48:08.914Z,5.20
2023-02-12T01:49:16.973Z,5.20
2023-02-12T01:50:21.644Z,5.20
2023-02-12T01:51:25.735Z,5.20
2023-02-12T01:52:33.570Z,5.20
2023-02-12T01:53:37.978Z,5.30
2023-02-12T01:54:41.806Z,5.30
2023-02-12T01:55:43.730Z,5.30
2023-02-12T01:56:46.823Z,5.40
2023-02-12T01:57:49.264Z,5.30
2023-02-12T01:58:54.016Z,5.30
2023-02-12T01:59:57.750Z,5.30
2023-02-12T02:01:03.481Z,5.30
2023-02-12T02:02:05.871Z,5.30
2023-02-12T02:03:09.009Z,5.30
2023-02-12T02:04:15.853Z,5.30
2023-02-12T02:05:28.971Z,5.30
2023-02-12T02:06:34.224Z,5.30
2023-02-12T02:07:37.196Z,5.30
2023-02-12T02:08:40.655Z,5.30
2023-02-12T02:09:44.568Z,5.30
2023-02-12T02:10:46.512Z,5.40
2023-02-12T02:12:07.131Z,5.40
2023-02-12T02:13:28.052Z,5.30
2023-02-12T02:14:32.840Z,5.40
2023-02-12T02:15:37.907Z,5.40
2023-02-12T02:16:46.367Z,5.40
2023-02-12T02:17:55.216Z,5.30
2023-02-12T02:19:02.396Z,5.30
2023-02-12T02:20:29.897Z,5.30
2023-02-12T02:22:04.582Z,5.20
2023-02-12T02:23:35.763Z,5.20
2023-02-12T02:25:16.128Z,5.10
2023-02-12T02:26:47.971Z,5.20
2023-02-12T02:28:03.414Z,5.20
2023-02-12T02:29:20.317Z,5.30
2023-02-12T02:30:35.369Z,5.30
2023-02-12T02:31:42.588Z,5.30
2023-02-12T02:32:55.077Z,5.20
2023-02-12T02:34:03.042Z,5.20
2023-02-12T02:35:11.516Z,5.10
2023-02-12T02:36:26.310Z,5.10
2023-02-12T02:37:32.999Z,5.10
2023-02-12T02:38:42.937Z,5.20
2023-02-12T02:39:50.415Z,5.20
2023-02-12T02:40:59.039Z,5.20
2023-02-12T02:42:07.339Z,5.20
2023-02-12T02:43:15.665Z,5.20
2023-02-12T02:44:23.095Z,5.20
2023-02-12T02:45:33.153Z,5.20
2023-02-12T02:46:40.282Z,5.20
2023-02-12T02:47:46.909Z,5.20
2023-02-12T02:48:53.282Z,5.20
2023-02-12T02:49:58.991Z,5.30
2023-02-12T02:51:05.846Z,5.20
2023-02-12T02:52:14.815Z,5.20
2023-02-12T02:53:21.926Z,5.20
2023-02-12T02:54:31.573Z,5.20
2023-02-12T02:55:38.874Z,5.20
2023-02-12T02:56:46.899Z,5.20
2023-02-12T02:57:55.895Z,5.20
2023-02-12T02:59:02.553Z,5.10
2023-02-12T03:00:12.135Z,5.20
2023-02-12T03:01:20.111Z,5.20
2023-02-12T03:02:25.613Z,5.30
2023-02-12T03:03:33.428Z,5.20
2023-02-12T03:04:40.858Z,5.20
2023-02-12T03:05:47.292Z,5.10
2023-02-12T03:06:59.152Z,5.10
2023-02-12T03:08:05.800Z,5.10
2023-02-12T03:09:17.042Z,5.00
2023-02-12T03:10:22.888Z,4.80
2023-02-12T03:11:28.629Z,4.70
2023-02-12T03:12:36.744Z,4.70
2023-02-12T03:13:46.279Z,4.70
2023-02-12T03:14:54.203Z,4.80
2023-02-12T03:16:03.606Z,4.70
2023-02-12T03:17:10.981Z,4.70
2023-02-12T03:18:20.991Z,4.70
2023-02-12T03:19:25.817Z,4.70
2023-02-12T03:20:32.001Z,4.70
2023-02-12T03:21:38.010Z,4.70
2023-02-12T03:22:44.543Z,4.60
2023-02-12T03:23:52.026Z,4.60
2023-02-12T03:24:59.822Z,4.60
2023-02-12T03:26:06.096Z,4.60
2023-02-12T03:27:13.806Z,4.60
2023-02-12T03:28:20.634Z,4.60
2023-02-12T03:29:23.641Z,4.60
2023-02-12T03:30:35.413Z,4.60
2023-02-12T03:31:55.099Z,4.50
2023-02-12T03:33:09.389Z,4.50
2023-02-12T03:34:18.649Z,4.50
2023-02-12T03:35:25.006Z,4.50
2023-02-12T03:36:34.484Z,4.50
2023-02-12T03:37:41.275Z,4.50
2023-02-12T03:38:46.686Z,4.50
2023-02-12T03:39:55.856Z,4.50
2023-02-12T03:41:03.206Z,4.50
2023-02-12T03:42:10.617Z,4.50
2023-02-12T03:43:21.595Z,4.50
2023-02-12T03:44:37.799Z,4.40
2023-02-12T03:45:45.330Z,4.40
2023-02-12T03:46:59.685Z,4.40
2023-02-12T03:48:08.518Z,4.50
2023-02-12T03:49:17.296Z,4.50
2023-02-12T03:50:27.396Z,4.50
2023-02-12T03:51:34.125Z,4.50
2023-02-12T03:52:36.433Z,4.50
2023-02-12T03:53:39.406Z,4.40
2023-02-12T03:54:41.509Z,4.40
2023-02-12T03:55:48.265Z,4.40
2023-02-12T03:56:54.537Z,4.50
2023-02-12T03:58:02.392Z,4.40
2023-02-12T03:59:04.934Z,4.40
2023-02-12T04:00:11.560Z,4.40
2023-02-12T04:01:14.318Z,4.40
2023-02-12T04:02:19.262Z,4.40
2023-02-12T04:03:22.673Z,4.50
2023-02-12T04:04:26.860Z,4.50
2023-02-12T04:05:29.008Z,4.40
2023-02-12T04:06:31.924Z,4.40
2023-02-12T04:07:35.008Z,4.40
2023-02-12T04:08:37.951Z,4.40
2023-02-12T04:09:39.974Z,4.40
2023-02-12T04:10:54.215Z,4.40
2023-02-12T04:12:09.542Z,4.40
2023-02-12T04:13:20.124Z,4.40
2023-02-12T04:14:29.262Z,4.40
2023-02-12T04:15:45.207Z,4.50
2023-02-12T04:16:52.084Z,4.50
2023-02-12T04:18:03.664Z,4.50
2023-02-12T04:19:10.293Z,4.60
2023-02-12T04:20:21.053Z,4.60
2023-02-12T04:21:42.282Z,4.70
2023-02-12T04:22:54.473Z,4.70
2023-02-12T04:24:05.614Z,4.70
2023-02-12T04:25:18.542Z,4.70
2023-02-12T04:26:31.012Z,4.70
2023-02-12T04:27:42.652Z,4.70
2023-02-12T04:28:52.376Z,4.70
2023-02-12T04:30:03.484Z,4.70
2023-02-12T04:31:13.049Z,4.70
2023-02-12T04:32:21.496Z,4.80
2023-02-12T04:33:27.390Z,4.80
2023-02-12T04:34:36.518Z,4.90
2023-02-12T04:35:45.648Z,4.90
2023-02-12T04:36:54.811Z,4.90
2023-02-12T04:38:02.037Z,4.90
2023-02-12T04:39:11.382Z,4.90
2023-02-12T04:40:16.520Z,4.90
2023-02-12T04:41:19.551Z,4.80
2023-02-12T04:42:21.642Z,4.90
2023-02-12T04:43:29.683Z,4.90
2023-02-12T04:44:38.444Z,4.90
2023-02-12T04:45:42.356Z,4.90
2023-02-12T04:46:44.410Z,4.90
2023-02-12T04:47:47.793Z,4.70
2023-02-12T04:48:54.640Z,4.70
2023-02-12T04:49:58.888Z,4.70
2023-02-12T04:51:00.987Z,4.60
2023-02-12T04:52:03.909Z,4.60
2023-02-12T04:53:05.849Z,4.60
2023-02-12T04:54:08.728Z,4.60
2023-02-12T04:55:10.836Z,4.50
2023-02-12T04:56:14.441Z,4.50
2023-02-12T04:57:16.382Z,4.50
2023-02-12T04:58:19.936Z,4.50
2023-02-12T04:59:22.069Z,4.40
2023-02-12T05:00:25.397Z,4.50
2023-02-12T05:01:29.603Z,4.40
2023-02-12T05:02:35.190Z,4.40
2023-02-12T05:03:37.662Z,4.40
2023-02-12T05:04:40.651Z,4.40
2023-02-12T05:05:43.987Z,4.40
2023-02-12T05:06:47.282Z,4.30
2023-02-12T05:07:49.240Z,4.30
2023-02-12T05:08:54.098Z,4.30
2023-02-12T05:09:56.083Z,4.50
2023-02-12T05:10:59.210Z,4.40
2023-02-12T05:12:01.107Z,4.40
2023-02-12T05:13:04.054Z,4.30
2023-02-12T05:14:06.038Z,4.30
2023-02-12T05:15:09.689Z,4.30
2023-02-12T05:16:11.722Z,4.30
2023-02-12T05:17:14.716Z,4.30
2023-02-12T05:18:16.661Z,4.20
2023-02-12T05:19:19.594Z,4.20
2023-02-12T05:20:21.576Z,4.30
2023-02-12T05:21:25.884Z,4.30
2023-02-12T05:22:27.891Z,4.30
2023-02-12T05:23:31.937Z,4.40
2023-02-12T05:24:33.942Z,4.30
2023-02-12T05:25:37.394Z,4.30
2023-02-12T05:26:39.349Z,4.30
2023-02-12T05:27:45.426Z,4.30
2023-02-12T05:28:47.406Z,4.40
2023-02-12T05:29:50.339Z,4.40
2023-02-12T05:30:52.352Z,4.40
2023-02-12T05:31:55.477Z,4.40
2023-02-12T05:32:57.461Z,4.40
2023-02-12T05:34:00.681Z,4.40
2023-02-12T05:35:02.676Z,4.40
2023-02-12T05:36:07.312Z,4.40
2023-02-12T05:37:11.651Z,4.40
2023-02-12T05:38:13.594Z,4.40
2023-02-12T05:39:16.746Z,4.40
2023-02-12T05:40:19.097Z,4.40
2023-02-12T05:41:24.955Z,4.40
2023-02-12T05:42:26.868Z,4.40
2023-02-12T05:43:29.806Z,4.40
2023-02-12T05:44:31.861Z,4.40
2023-02-12T05:45:35.004Z,4.40
2023-02-12T05:46:37.118Z,4.40
2023-02-12T05:47:40.039Z,4.40
2023-02-12T05:48:42.141Z,4.40
2023-02-12T05:49:45.119Z,4.50
2023-02-12T05:50:47.068Z,4.40
2023-02-12T05:51:50.728Z,4.40
2023-02-12T05:52:54.014Z,4.40
2023-02-12T05:54:00.117Z,4.40
2023-02-12T05:55:02.125Z,4.40
2023-02-12T05:56:13.732Z,4.40
2023-02-12T05:57:16.694Z,4.40
2023-02-12T05:58:18.695Z,4.40
2023-02-12T05:59:23.791Z,4.30
2023-02-12T06:00:27.504Z,4.40
2023-02-12T06:01:32.822Z,4.50
2023-02-12T06:02:34.838Z,4.50
2023-02-12T06:03:37.797Z,4.60
2023-02-12T06:04:40.723Z,4.60
2023-02-12T06:05:42.647Z,4.60
2023-02-12T06:06:45.949Z,4.60
2023-02-12T06:07:47.860Z,4.60
2023-02-12T06:08:52.152Z,4.60
2023-02-12T06:09:54.929Z,4.60
2023-02-12T06:11:01.126Z,4.60
2023-02-12T06:12:04.356Z,4.60
2023-02-12T06:13:06.325Z,4.60
2023-02-12T06:14:12.099Z,4.60
2023-02-12T06:15:14.214Z,4.50
2023-02-12T06:16:23.052Z,4.50
2023-02-12T06:17:24.991Z,4.60
2023-02-12T06:18:28.620Z,4.60
2023-02-12T06:19:30.584Z,4.60
2023-02-12T06:20:33.659Z,4.50
2023-02-12T06:21:35.614Z,4.60
2023-02-12T06:22:39.307Z,4.60
2023-02-12T06:23:41.445Z,4.70
2023-02-12T06:24:45.699Z,4.60
2023-02-12T06:25:47.894Z,4.70
2023-02-12T06:26:51.726Z,4.60
2023-02-12T06:27:53.628Z,4.60
2023-02-12T06:28:56.552Z,4.50
2023-02-12T06:29:58.469Z,4.50
2023-02-12T06:31:01.721Z,4.50
2023-02-12T06:32:03.920Z,4.40
2023-02-12T06:33:06.935Z,4.40
2023-02-12T06:34:11.262Z,3.70
2023-02-12T06:35:14.213Z,4.50
2023-02-12T06:36:16.783Z,4.50
2023-02-12T06:37:19.752Z,4.50
2023-02-12T06:38:21.684Z,4.60
2023-02-12T06:39:24.842Z,4.60
2023-02-12T06:40:28.299Z,4.60
2023-02-12T06:41:31.628Z,4.50
2023-02-12T06:42:33.579Z,4.50
2023-02-12T06:43:36.728Z,4.60
2023-02-12T06:44:38.699Z,4.60
2023-02-12T06:45:41.601Z,4.70
2023-02-12T06:46:44.703Z,4.70
2023-02-12T06:47:46.731Z,4.80
2023-02-12T06:48:49.769Z,4.90
2023-02-12T06:49:52.692Z,4.90
2023-02-12T06:50:54.804Z,4.80
2023-02-12T06:51:57.794Z,4.80
2023-02-12T06:52:59.955Z,4.70
2023-02-12T06:54:02.840Z,4.70
2023-02-12T06:55:05.158Z,4.70
2023-02-12T06:56:13.339Z,4.70
2023-02-12T06:57:16.378Z,4.70
2023-02-12T06:58:18.286Z,4.60
2023-02-12T06:59:21.293Z,4.60
2023-02-12T07:00:23.879Z,4.60
2023-02-12T07:01:29.410Z,4.60
2023-02-12T07:02:31.324Z,4.70
2023-02-12T07:03:34.297Z,4.60
2023-02-12T07:04:39.202Z,4.60
2023-02-12T07:05:41.491Z,4.60
2023-02-12T07:06:44.515Z,4.70
2023-02-12T07:07:46.488Z,4.80
2023-02-12T07:08:49.457Z,4.80
2023-02-12T07:09:51.370Z,4.80
2023-02-12T07:10:54.292Z,4.90
2023-02-12T07:11:58.295Z,4.90
2023-02-12T07:13:01.182Z,4.80
2023-02-12T07:14:03.497Z,4.80
2023-02-12T07:15:06.642Z,4.90
2023-02-12T07:16:10.462Z,4.90
2023-02-12T07:17:14.580Z,4.90
2023-02-12T07:18:16.478Z,4.90
2023-02-12T07:19:19.400Z,4.80
2023-02-12T07:20:21.404Z,4.80
2023-02-12T07:21:24.355Z,4.90
2023-02-12T07:22:26.390Z,4.90
2023-02-12T07:23:29.779Z,4.90
2023-02-12T07:24:32.765Z,4.90
2023-02-12T07:25:35.090Z,4.90
2023-02-12T07:26:37.995Z,4.80
2023-02-12T07:27:41.329Z,4.90
2023-02-12T07:28:44.874Z,4.40
2023-02-12T07:29:47.839Z,4.90
2023-02-12T07:30:49.828Z,4.90
2023-02-12T07:31:52.851Z,5.00
2023-02-12T07:32:54.995Z,5.00
2023-02-12T07:33:59.226Z,5.00
2023-02-12T07:35:01.491Z,5.00
2023-02-12T07:36:05.554Z,5.00
2023-02-12T07:37:07.772Z,5.00
2023-02-12T07:38:10.705Z,5.00
2023-02-12T07:39:13.251Z,5.10
2023-02-12T07:40:16.274Z,5.10
2023-02-12T07:41:20.484Z,5.00
2023-02-12T07:42:23.435Z,5.00
2023-02-12T07:43:26.751Z,5.00
2023-02-12T07:44:29.707Z,5.00
2023-02-12T07:45:31.695Z,5.10
2023-02-12T07:46:36.352Z,5.10
2023-02-12T07:47:38.588Z,5.20
2023-02-12T07:48:41.868Z,5.20
2023-02-12T07:49:43.946Z,5.20
2023-02-12T07:50:46.913Z,5.20
2023-02-12T07:51:49.301Z,5.20
2023-02-12T07:52:52.284Z,5.20
2023-02-12T07:53:54.781Z,5.20
2023-02-12T07:54:57.896Z,5.20
2023-02-12T07:56:06.461Z,5.20
2023-02-12T07:57:09.341Z,5.20
2023-02-12T07:58:11.276Z,5.20
2023-02-12T07:59:17.458Z,5.30
2023-02-12T08:00:20.283Z,5.40
2023-02-12T08:01:26.893Z,5.40
2023-02-12T08:02:28.868Z,5.50
2023-02-12T08:03:31.858Z,5.40
2023-02-12T08:04:34.828Z,5.50
2023-02-12T08:05:37.021Z,5.50
2023-02-12T08:06:42.016Z,5.50
2023-02-12T08:07:43.921Z,5.40
2023-02-12T08:08:46.846Z,5.30
2023-02-12T08:09:48.951Z,5.20
2023-02-12T08:10:51.937Z,5.20
2023-02-12T08:11:55.685Z,5.10
2023-02-12T08:12:57.633Z,5.10
2023-02-12T08:14:00.871Z,5.10
2023-02-12T08:15:04.394Z,5.10
2023-02-12T08:16:09.696Z,5.10
2023-02-12T08:17:13.094Z,5.10
2023-02-12T08:18:15.021Z,5.10
2023-02-12T08:19:21.917Z,5.10
2023-02-12T08:20:26.806Z,5.10
2023-02-12T08:21:30.083Z,5.20
2023-02-12T08:22:32.037Z,5.10
2023-02-12T08:23:35.439Z,5.20
2023-02-12T08:24:37.399Z,5.20
2023-02-12T08:25:40.332Z,5.30
2023-02-12T08:26:42.253Z,5.30
2023-02-12T08:27:45.250Z,5.30
2023-02-12T08:28:49.031Z,5.30
2023-02-12T08:29:51.934Z,5.30
2023-02-12T08:31:00.469Z,5.30
2023-02-12T08:32:06.288Z,5.30
2023-02-12T08:33:08.367Z,5.30
2023-02-12T08:34:18.514Z,5.30
2023-02-12T08:35:20.468Z,5.30
2023-02-12T08:36:25.386Z,5.30
2023-02-12T08:37:27.339Z,5.40
2023-02-12T08:38:30.333Z,5.30
2023-02-12T08:39:33.587Z,5.30
2023-02-12T08:40:35.516Z,5.40
2023-02-12T08:41:38.500Z,5.50
2023-02-12T08:42:40.458Z,5.60
2023-02-12T08:43:44.334Z,5.50
2023-02-12T08:44:46.226Z,5.50
2023-02-12T08:45:49.195Z,5.50
2023-02-12T08:46:53.729Z,5.50
2023-02-12T08:47:56.641Z,5.50
2023-02-12T08:49:01.354Z,5.50
2023-02-12T08:50:04.386Z,5.40
2023-02-12T08:51:08.281Z,5.50
2023-02-12T08:52:11.153Z,5.50
2023-02-12T08:53:13.167Z,5.50
2023-02-12T08:54:18.335Z,5.50
2023-02-12T08:55:20.485Z,5.40
2023-02-12T08:56:24.908Z,5.50
2023-02-12T08:57:27.782Z,5.50
2023-02-12T08:58:29.859Z,5.50
2023-02-12T08:59:32.929Z,5.50
2023-02-12T09:00:34.846Z,5.50
2023-02-12T09:01:40.970Z,5.60
2023-02-12T09:02:44.389Z,5.60
2023-02-12T09:03:48.365Z,5.50
2023-02-12T09:04:51.398Z,5.60
2023-02-12T09:05:55.028Z,5.60
2023-02-12T09:06:58.236Z,5.60
2023-02-12T09:08:00.170Z,5.60
2023-02-12T09:09:03.444Z,5.60
2023-02-12T09:10:06.862Z,5.60
2023-02-12T09:11:12.748Z,5.60
2023-02-12T09:12:15.679Z,5.60
2023-02-12T09:13:17.636Z,5.60
2023-02-12T09:14:23.746Z,5.60
2023-02-12T09:15:26.012Z,5.60
2023-02-12T09:16:30.430Z,5.60
2023-02-12T09:17:32.376Z,5.60
2023-02-12T09:18:37.204Z,5.70
2023-02-12T09:19:40.171Z,5.70
2023-02-12T09:20:43.878Z,5.70
2023-02-12T09:21:46.842Z,5.70
2023-02-12T09:22:48.887Z,5.70
2023-02-12T09:23:52.194Z,5.80
2023-02-12T09:24:54.176Z,5.80
2023-02-12T09:25:57.505Z,5.80
2023-02-12T09:26:59.635Z,5.80
2023-02-12T09:28:02.872Z,5.80
2023-02-12T09:29:06.303Z,5.90
2023-02-12T09:30:09.616Z,5.90
2023-02-12T09:31:14.187Z,5.90
2023-02-12T09:32:16.225Z,5.90
2023-02-12T09:33:19.442Z,5.90
2023-02-12T09:34:23.746Z,5.90
2023-02-12T09:35:27.426Z,5.90
2023-02-12T09:36:30.939Z,5.90
2023-02-12T09:37:32.879Z,5.90
2023-02-12T09:38:35.845Z,5.90
2023-02-12T09:39:37.928Z,6.00
2023-02-12T09:40:52.467Z,6.10
2023-02-12T09:42:15.294Z,6.10
2023-02-12T09:43:25.627Z,6.10
2023-02-12T09:44:33.253Z,6.10
2023-02-12T09:45:38.434Z,6.20
2023-02-12T09:46:46.802Z,6.20
2023-02-12T09:47:58.238Z,6.20
2023-02-12T09:49:09.824Z,6.20
2023-02-12T09:50:30.358Z,6.10
2023-02-12T09:51:33.557Z,6.10
2023-02-12T09:52:36.808Z,6.20
2023-02-12T09:53:45.807Z,6.20
2023-02-12T09:54:49.646Z,6.30
2023-02-12T09:55:52.653Z,6.30
2023-02-12T09:56:58.663Z,6.40
2023-02-12T09:58:05.257Z,6.40
2023-02-12T09:59:09.875Z,6.40
2023-02-12T10:00:16.727Z,6.40
2023-02-12T10:01:21.871Z,6.40
2023-02-12T10:02:25.634Z,6.40
2023-02-12T10:03:31.855Z,6.40
2023-02-12T10:04:33.822Z,6.40
2023-02-12T10:05:42.101Z,6.40
2023-02-12T10:06:51.199Z,6.50
2023-02-12T10:08:25.056Z,6.50
2023-02-12T10:09:45.073Z,6.60
2023-02-12T10:10:53.848Z,6.60
2023-02-12T10:12:05.053Z,6.70
2023-02-12T10:13:11.924Z,6.70
2023-02-12T10:14:30.974Z,6.80
2023-02-12T10:15:39.994Z,6.80
2023-02-12T10:16:52.119Z,6.80
2023-02-12T10:18:03.186Z,6.80
2023-02-12T10:19:19.569Z,6.90
2023-02-12T10:20:53.022Z,6.90
2023-02-12T10:22:05.897Z,6.90
2023-02-12T10:23:27.672Z,7.00
2023-02-12T10:25:03.441Z,7.00
2023-02-12T10:26:13.872Z,7.00
2023-02-12T10:27:18.944Z,7.10
2023-02-12T10:28:26.084Z,7.10
2023-02-12T10:29:33.086Z,7.10
2023-02-12T10:30:44.042Z,7.10
2023-02-12T10:31:50.204Z,7.10
2023-02-12T10:32:54.951Z,7.20
2023-02-12T10:33:58.826Z,7.20
2023-02-12T10:35:02.413Z,7.30
2023-02-12T10:36:18.772Z,7.30
2023-02-12T10:37:29.908Z,7.30
2023-02-12T10:38:39.490Z,7.30
2023-02-12T10:39:44.959Z,7.40
2023-02-12T10:40:47.445Z,7.40
2023-02-12T10:41:56.549Z,7.40
2023-02-12T10:42:59.514Z,7.40
2023-02-12T10:44:02.743Z,7.40
2023-02-12T10:45:06.398Z,7.40
2023-02-12T10:46:14.547Z,7.40
2023-02-12T10:47:21.611Z,7.40
2023-02-12T10:48:27.832Z,7.40
2023-02-12T10:49:32.322Z,7.40
2023-02-12T10:50:43.819Z,7.50
2023-02-12T10:52:04.552Z,7.40
2023-02-12T10:53:11.417Z,7.50
2023-02-12T10:54:37.930Z,7.50
2023-02-12T10:55:39.887Z,7.40
2023-02-12T10:56:42.832Z,7.40
2023-02-12T10:57:45.883Z,7.40
2023-02-12T10:58:57.317Z,7.40
2023-02-12T11:00:25.592Z,7.50
2023-02-12T11:01:30.801Z,7.50
2023-02-12T11:02:34.212Z,7.50
2023-02-12T11:03:39.876Z,7.40
2023-02-12T11:04:41.793Z,7.40
2023-02-12T11:05:45.816Z,7.40
2023-02-12T11:07:00.389Z,7.40
2023-02-12T11:08:03.316Z,7.40
2023-02-12T11:09:06.398Z,7.40
2023-02-12T11:10:22.124Z,7.40
2023-02-12T11:11:28.385Z,7.40
2023-02-12T11:12:36.712Z,7.40
2023-02-12T11:13:42.739Z,7.40
2023-02-12T11:14:50.748Z,7.40
2023-02-12T11:15:54.279Z,7.40
2023-02-12T11:16:58.710Z,7.40
2023-02-12T11:18:05.409Z,7.50
2023-02-12T11:19:18.894Z,7.50
2023-02-12T11:20:25.617Z,7.50
2023-02-12T11:21:28.550Z,7.50
2023-02-12T11:22:32.027Z,7.50
2023-02-12T11:23:37.781Z,7.60
2023-02-12T11:24:39.831Z,7.60
2023-02-12T11:25:57.718Z,7.60
2023-02-12T11:27:14.459Z,7.60
2023-02-12T11:28:19.766Z,7.60
2023-02-12T11:29:24.806Z,7.70
2023-02-12T11:30:27.920Z,7.70
2023-02-12T11:31:32.608Z,7.70
2023-02-12T11:32:34.565Z,7.70
2023-02-12T11:33:39.010Z,7.70
2023-02-12T11:34:42.055Z,7.70
2023-02-12T11:35:52.542Z,7.70
2023-02-12T11:36:57.969Z,7.70
2023-02-12T11:38:02.522Z,7.70
2023-02-12T11:39:07.685Z,7.70
2023-02-12T11:40:19.002Z,7.70
2023-02-12T11:41:28.523Z,7.70
2023-02-12T11:42:34.875Z,7.80
2023-02-12T11:43:39.745Z,7.80
2023-02-12T11:44:45.128Z,7.80
2023-02-12T11:45:53.067Z,7.90
2023-02-12T11:46:59.640Z,7.80
2023-02-12T11:48:01.980Z,7.80
2023-02-12T11:49:09.257Z,7.90
2023-02-12T11:50:22.157Z,7.90
2023-02-12T11:51:29.453Z,7.90
2023-02-12T11:52:33.467Z,7.90
2023-02-12T11:53:41.624Z,7.90
2023-02-12T11:54:49.120Z,7.90
2023-02-12T11:55:57.255Z,7.90
2023-02-12T11:57:00.254Z,7.90
2023-02-12T11:58:04.084Z,7.90
2023-02-12T11:59:32.760Z,7.90
2023-02-12T12:00:38.730Z,8.00
2023-02-12T12:01:42.188Z,8.00
2023-02-12T12:02:49.197Z,8.00
2023-02-12T12:03:59.658Z,8.00
2023-02-12T12:05:08.071Z,8.00
2023-02-12T12:06:23.054Z,8.10
2023-02-12T12:07:29.471Z,8.00
2023-02-12T12:08:41.114Z,8.00
2023-02-12T12:09:48.291Z,8.00
2023-02-12T12:10:57.644Z,8.10
2023-02-12T12:12:08.975Z,8.10
2023-02-12T12:13:16.350Z,8.10
2023-02-12T12:14:25.775Z,8.10
2023-02-12T12:15:48.741Z,8.00
2023-02-12T12:17:14.695Z,8.10
2023-02-12T12:18:44.816Z,8.00
2023-02-12T12:19:57.287Z,8.10
2023-02-12T12:21:09.107Z,8.10
2023-02-12T12:22:16.709Z,8.10
2023-02-12T12:23:26.293Z,8.20
2023-02-12T12:24:41.032Z,8.20
2023-02-12T12:25:49.226Z,8.20
2023-02-12T12:27:03.173Z,8.20
2023-02-12T12:28:18.020Z,8.20
2023-02-12T12:29:24.340Z,8.20
2023-02-12T12:30:41.183Z,8.20
2023-02-12T12:31:47.259Z,8.20
2023-02-12T12:32:52.648Z,8.20
2023-02-12T12:34:02.520Z,8.20
2023-02-12T12:35:05.640Z,8.20
2023-02-12T12:36:39.316Z,8.20
2023-02-12T12:37:49.473Z,8.20
2023-02-12T12:38:59.621Z,8.20
2023-02-12T12:40:23.171Z,8.20
2023-02-12T12:41:35.176Z,8.20
2023-02-12T12:43:09.587Z,8.20
2023-02-12T12:44:26.930Z,8.20
2023-02-12T12:46:08.680Z,8.20
2023-02-12T12:47:24.095Z,8.20
2023-02-12T12:48:51.645Z,8.30
2023-02-12T12:50:01.513Z,8.30
2023-02-12T12:51:18.599Z,8.30
2023-02-12T12:52:43.774Z,8.30
2023-02-12T12:54:03.063Z,8.20
2023-02-12T12:55:43.028Z,8.30
2023-02-12T12:56:56.884Z,8.30
2023-02-12T12:58:08.263Z,8.30
2023-02-12T12:59:34.509Z,8.30
2023-02-12T13:00:54.916Z,8.30
2023-02-12T13:02:15.985Z,8.40
2023-02-12T13:03:56.731Z,8.50
2023-02-12T13:05:24.905Z,8.50
2023-02-12T13:06:57.550Z,8.50
2023-02-12T13:08:08.309Z,8.60
2023-02-12T13:09:34.563Z,8.50
2023-02-12T13:10:45.080Z,8.40
2023-02-12T13:12:05.175Z,8.50
2023-02-12T13:13:21.795Z,8.60
2023-02-12T13:14:38.591Z,8.70
2023-02-12T13:15:51.888Z,8.80
2023-02-12T13:17:05.054Z,8.70
2023-02-12T13:18:24.132Z,8.70
2023-02-12T13:19:40.001Z,8.70
2023-02-12T13:20:50.557Z,9.80
2023-02-12T13:21:58.365Z,8.60
2023-02-12T13:23:04.818Z,8.60
2023-02-12T13:24:22.707Z,8.60
2023-02-12T13:25:30.868Z,8.60
2023-02-12T13:26:46.514Z,8.60
2023-02-12T13:27:51.148Z,8.60
2023-02-12T13:28:57.696Z,8.70
2023-02-12T13:30:05.245Z,8.60
2023-02-12T13:31:32.033Z,6.70
2023-02-12T13:32:43.307Z,8.70
2023-02-12T13:33:51.298Z,8.60
2023-02-12T13:34:56.978Z,8.60
2023-02-12T13:36:03.032Z,8.60
2023-02-12T13:37:10.860Z,8.60
2023-02-12T13:38:19.905Z,8.60
2023-02-12T13:39:33.833Z,8.60
2023-02-12T13:40:37.316Z,8.70
2023-02-12T13:41:48.787Z,8.60
2023-02-12T13:42:57.084Z,8.50
2023-02-12T13:44:08.058Z,8.50
2023-02-12T13:45:25.380Z,8.50
2023-02-12T13:46:34.555Z,8.60
2023-02-12T13:47:48.091Z,8.50
2023-02-12T13:48:59.133Z,8.50
2023-02-12T13:50:06.999Z,8.50
2023-02-12T13:51:21.649Z,8.40
2023-02-12T13:52:32.414Z,8.40
2023-02-12T13:53:47.977Z,8.40
2023-02-12T13:55:02.596Z,8.40
2023-02-12T13:56:11.201Z,8.40
2023-02-12T13:57:17.690Z,8.40
2023-02-12T13:58:49.192Z,8.40
2023-02-12T13:59:54.786Z,8.40
2023-02-12T14:00:59.859Z,8.40
2023-02-12T14:02:04.007Z,8.40
2023-02-12T14:03:10.489Z,8.40
2023-02-12T14:04:32.240Z,8.50
2023-02-12T14:05:36.249Z,8.50
2023-02-12T14:06:38.386Z,8.50
2023-02-12T14:07:44.135Z,8.50
2023-02-12T14:08:51.120Z,8.50
2023-02-12T14:10:05.274Z,8.50
2023-02-12T14:11:10.789Z,8.50
2023-02-12T14:12:18.454Z,8.50
2023-02-12T14:13:24.815Z,8.50
2023-02-12T14:14:30.632Z,8.50
2023-02-12T14:15:35.093Z,8.50
2023-02-12T14:16:41.250Z,8.40
2023-02-12T14:17:54.635Z,8.50
2023-02-12T14:19:31.064Z,8.50
2023-02-12T14:20:35.657Z,8.40
2023-02-12T14:21:37.869Z,8.40
2023-02-12T14:23:14.390Z,8.50
2023-02-12T14:24:51.981Z,8.50
2023-02-12T14:26:04.534Z,8.40
2023-02-12T14:27:17.595Z,8.40
2023-02-12T14:28:28.895Z,8.40
2023-02-12T14:29:31.055Z,8.40
2023-02-12T14:30:37.256Z,8.40
2023-02-12T14:31:40.553Z,8.40
2023-02-12T14:33:17.912Z,8.40
2023-02-12T14:34:51.868Z,8.40
2023-02-12T14:36:15.540Z,8.40
2023-02-12T14:37:35.975Z,8.40
2023-02-12T14:39:04.168Z,8.40
2023-02-12T14:40:40.644Z,8.40
2023-02-12T14:41:43.659Z,8.40
2023-02-12T14:42:56.660Z,8.40
2023-02-12T14:44:45.562Z,8.40
2023-02-12T14:45:49.966Z,8.40
2023-02-12T14:46:53.227Z,8.40
2023-02-12T14:47:56.291Z,8.40
2023-02-12T14:49:04.930Z,8.40
2023-02-12T14:50:16.114Z,8.40
2023-02-12T14:51:36.939Z,8.40
2023-02-12T14:52:43.756Z,8.40
2023-02-12T14:53:49.521Z,8.40